Time;durP1;ratioP1;P1;durP2;ratioP2;P2;SDS_P1;SDS_P2;PMS_P1;PMS_P2;Temp;Humidity;BMP_temperature;BMP_pressure;BME280_temperature;BME280_humidity;BME280_pressure;Samples;Min_cycle;Max_cycle;Signal;HPM_P1;HPM_P2
2022/12/29 00:00:43;;;;;;;11.43;5.00;;;2.00;99.90;;;;;;4431853;28;656600;-70
2022/12/29 00:03:32;;;;;;;13.68;5.07;;;2.00;99.90;;;;;;4415372;28;656937;-70
2022/12/29 00:06:19;;;;;;;11.93;4.90;;;1.90;99.90;;;;;;4438180;28;656320;-70
2022/12/29 00:09:06;;;;;;;14.97;4.60;;;1.80;99.90;;;;;;4414787;28;657088;-71
2022/12/29 00:11:53;;;;;;;11.20;4.57;;;1.70;99.90;;;;;;4438406;28;657931;-70
2022/12/29 00:17:45;;;;;;;16.25;5.60;;;1.50;99.90;;;;;;4394282;28;656973;-71
2022/12/29 00:36:02;;;;;;;16.23;6.67;;;1.10;99.90;;;;;;4392689;28;657109;-71
2022/12/29 00:45:00;;;;;;;16.97;6.70;;;1.10;99.90;;;;;;4430454;28;656897;-70
2022/12/29 00:47:47;;;;;;;15.67;6.17;;;1.10;99.90;;;;;;4434210;28;657631;-70
2022/12/29 00:50:34;;;;;;;16.20;6.07;;;1.10;99.90;;;;;;4428918;28;656703;-70
2022/12/29 00:53:23;;;;;;;15.00;6.30;;;1.10;99.90;;;;;;4436436;28;657681;-70
2022/12/29 00:56:10;;;;;;;12.67;6.10;;;1.30;99.90;;;;;;4416263;28;656119;-70
2022/12/29 00:59:01;;;;;;;16.03;6.53;;;1.40;99.90;;;;;;4433088;28;657367;-70
2022/12/29 01:01:48;;;;;;;14.00;5.87;;;1.50;99.90;;;;;;4410037;28;658368;-70
2022/12/29 01:04:36;;;;;;;14.73;6.37;;;1.70;99.90;;;;;;4411042;28;656440;-70
2022/12/29 01:07:23;;;;;;;12.90;5.67;;;1.80;99.90;;;;;;4431751;28;657767;-70
2022/12/29 01:10:11;;;;;;;14.73;6.40;;;1.80;99.90;;;;;;4413613;28;657129;-70
2022/12/29 01:12:58;;;;;;;16.00;6.07;;;1.70;99.90;;;;;;4430474;28;657876;-71
2022/12/29 01:15:50;;;;;;;15.87;5.90;;;1.70;99.90;;;;;;4412562;28;656696;-70
2022/12/29 01:18:38;;;;;;;15.17;5.33;;;1.60;99.90;;;;;;4408858;28;657903;-70
2022/12/29 01:21:25;;;;;;;14.37;5.97;;;1.60;99.90;;;;;;4444734;28;657034;-70
2022/12/29 01:24:12;;;;;;;16.57;5.67;;;1.60;99.90;;;;;;4448770;28;657278;-71
2022/12/29 01:27:02;;;;;;;15.20;6.63;;;1.60;99.90;;;;;;4444646;28;656740;-70
2022/12/29 01:29:49;;;;;;;15.40;6.60;;;1.70;99.90;;;;;;4453467;28;656534;-70
2022/12/29 01:32:36;;;;;;;12.37;6.17;;;1.70;99.90;;;;;;4425364;28;656889;-70
2022/12/29 01:35:23;;;;;;;15.73;6.57;;;1.80;99.90;;;;;;4453851;28;657057;-70
2022/12/29 01:38:11;;;;;;;17.60;6.40;;;1.80;99.90;;;;;;4428314;28;656146;-70
2022/12/29 01:40:58;;;;;;;15.17;6.37;;;1.90;99.90;;;;;;4448821;28;656887;-70
2022/12/29 01:43:48;;;;;;;15.80;6.85;;;2.00;99.90;;;;;;4434761;28;657438;-70
2022/12/29 01:46:37;;;;;;;13.53;6.17;;;2.00;99.90;;;;;;4431996;28;656351;-70
2022/12/29 01:49:25;;;;;;;15.60;7.03;;;2.30;99.90;;;;;;4446123;28;657734;-70
2022/12/29 01:52:12;;;;;;;13.30;6.57;;;2.40;99.90;;;;;;4427647;28;658019;-70
2022/12/29 01:54:59;;;;;;;16.73;6.70;;;2.50;99.90;;;;;;4454341;28;656485;-71
2022/12/29 01:57:48;;;;;;;14.10;7.00;;;2.50;99.90;;;;;;4425722;28;656835;-70
2022/12/29 02:00:37;;;;;;;20.52;7.18;;;2.50;99.90;;;;;;4431876;28;656707;-70
2022/12/29 02:03:26;;;;;;;17.17;6.87;;;2.70;99.90;;;;;;4453911;28;657070;-70
2022/12/29 02:06:15;;;;;;;14.70;7.23;;;2.80;99.90;;;;;;4417346;28;657128;-70
2022/12/29 02:09:03;;;;;;;13.70;6.67;;;2.90;99.90;;;;;;4421956;28;658123;-70
2022/12/29 02:11:50;;;;;;;17.07;6.40;;;3.00;99.90;;;;;;4434190;28;657210;-70
2022/12/29 02:14:37;;;;;;;12.43;5.47;;;3.00;99.90;;;;;;4443652;28;657040;-70
2022/12/29 02:17:35;;;;;;;13.53;6.20;;;2.70;99.90;;;;;;4448242;28;656838;-70
2022/12/29 02:20:52;;;;;;;15.07;6.30;;;2.60;99.90;;;;;;4429360;28;656806;-70
2022/12/29 02:23:59;;;;;;;16.20;7.37;;;2.60;99.90;;;;;;4390209;28;656593;-70
2022/12/29 02:26:59;;;;;;;15.23;7.63;;;2.60;99.90;;;;;;4427516;28;656193;-70
2022/12/29 02:30:06;;;;;;;15.60;6.77;;;2.50;99.90;;;;;;4429608;28;657139;-70
2022/12/29 02:32:57;;;;;;;12.77;6.80;;;2.40;99.90;;;;;;4428879;28;656884;-71
2022/12/29 02:35:47;;;;;;;15.77;6.60;;;2.40;99.90;;;;;;4426259;28;657085;-70
2022/12/29 02:38:43;;;;;;;13.13;6.37;;;2.40;99.90;;;;;;4426997;28;657114;-70
2022/12/29 02:41:32;;;;;;;15.50;6.90;;;2.30;99.90;;;;;;4428820;28;657548;-70
2022/12/29 02:44:24;;;;;;;13.03;6.00;;;2.20;99.90;;;;;;4455531;28;656872;-70
2022/12/29 02:47:15;;;;;;;16.37;6.73;;;2.20;99.90;;;;;;4432714;28;656882;-71
2022/12/29 02:50:07;;;;;;;18.87;7.43;;;2.20;99.90;;;;;;4430143;28;656243;-70
2022/12/29 02:52:58;;;;;;;19.93;7.23;;;2.10;99.90;;;;;;4432445;28;656487;-70
2022/12/29 02:55:48;;;;;;;20.20;7.70;;;2.00;99.90;;;;;;4408581;28;657185;-70
2022/12/29 02:58:35;;;;;;;13.23;6.57;;;2.00;99.90;;;;;;4427686;28;656751;-71
2022/12/29 03:01:27;;;;;;;16.00;7.00;;;1.90;99.90;;;;;;4450738;28;656770;-70
2022/12/29 03:04:22;;;;;;;16.73;7.28;;;1.80;99.90;;;;;;4421015;28;657282;-70
2022/12/29 03:07:14;;;;;;;17.13;7.13;;;1.80;99.90;;;;;;4431204;28;656882;-70
2022/12/29 03:10:02;;;;;;;25.70;9.63;;;1.80;99.90;;;;;;4427311;28;656337;-70
2022/12/29 03:16:04;;;;;;;18.77;8.00;;;1.80;99.90;;;;;;4423758;28;656875;-71
2022/12/29 03:18:56;;;;;;;12.37;5.90;;;1.80;99.90;;;;;;4391918;28;657463;-70
2022/12/29 03:24:53;;;;;;;18.70;8.27;;;1.70;99.90;;;;;;4422724;28;656520;-70
2022/12/29 03:27:42;;;;;;;22.37;9.17;;;1.70;99.90;;;;;;4426882;28;656421;-71
2022/12/29 03:30:29;;;;;;;27.20;10.17;;;1.70;99.90;;;;;;4453815;28;656745;-70
2022/12/29 03:33:18;;;;;;;14.10;6.10;;;1.70;99.90;;;;;;4427511;28;657905;-70
2022/12/29 03:36:07;;;;;;;13.93;5.53;;;1.70;99.90;;;;;;4431826;28;659305;-70
2022/12/29 03:38:56;;;;;;;13.02;5.30;;;1.60;99.90;;;;;;4453677;28;656892;-70
2022/12/29 03:41:45;;;;;;;15.03;5.50;;;1.60;99.90;;;;;;4430825;28;657138;-70
2022/12/29 03:44:33;;;;;;;14.60;5.97;;;1.50;99.90;;;;;;4427003;28;657105;-70
2022/12/29 03:47:21;;;;;;;16.17;6.47;;;1.50;99.90;;;;;;4425946;28;656406;-71
2022/12/29 03:50:09;;;;;;;14.97;5.80;;;1.40;99.90;;;;;;4440877;28;657330;-70
2022/12/29 03:52:56;;;;;;;12.17;5.40;;;1.40;99.90;;;;;;4431801;28;656805;-70
2022/12/29 03:55:43;;;;;;;13.77;4.55;;;1.40;99.90;;;;;;4449420;28;657259;-70
2022/12/29 03:58:32;;;;;;;11.97;4.40;;;1.40;99.90;;;;;;4432361;28;656481;-70
2022/12/29 04:01:19;;;;;;;13.17;5.10;;;1.40;99.90;;;;;;4452711;28;656692;-71
2022/12/29 04:04:06;;;;;;;13.80;5.40;;;1.40;99.90;;;;;;4426674;28;656700;-70
2022/12/29 04:06:54;;;;;;;10.03;4.73;;;1.40;99.90;;;;;;4449516;28;656520;-70
2022/12/29 04:09:41;;;;;;;18.63;7.40;;;1.40;99.90;;;;;;4427827;28;656672;-70
2022/12/29 04:12:28;;;;;;;73.13;22.87;;;1.40;99.90;;;;;;4446015;28;657262;-70
2022/12/29 04:15:17;;;;;;;92.70;30.30;;;1.30;99.90;;;;;;4426490;28;657786;-70
2022/12/29 04:18:04;;;;;;;128.13;48.00;;;1.30;99.90;;;;;;4454031;28;658643;-70
2022/12/29 04:21:00;;;;;;;69.13;29.07;;;1.20;99.90;;;;;;4420528;28;659450;-70
2022/12/29 04:23:47;;;;;;;26.90;10.97;;;1.20;99.90;;;;;;4404132;28;658485;-70
2022/12/29 04:26:34;;;;;;;39.43;15.70;;;1.10;99.90;;;;;;4447213;28;657794;-70
2022/12/29 04:29:22;;;;;;;19.53;7.50;;;1.00;99.90;;;;;;4423901;28;657385;-70
2022/12/29 04:32:10;;;;;;;15.93;5.70;;;1.00;99.90;;;;;;4441716;28;657482;-70
2022/12/29 04:34:58;;;;;;;16.87;6.90;;;0.90;99.90;;;;;;4424928;28;656919;-70
2022/12/29 04:37:45;;;;;;;19.03;8.40;;;0.80;99.90;;;;;;4431027;28;656514;-70
2022/12/29 04:40:32;;;;;;;23.60;9.60;;;0.80;99.90;;;;;;4448327;28;657158;-70
2022/12/29 04:43:21;;;;;;;26.67;10.63;;;0.70;99.90;;;;;;4443014;28;656769;-70
2022/12/29 04:46:09;;;;;;;45.77;18.70;;;0.70;99.90;;;;;;4441433;28;658037;-70
2022/12/29 04:48:57;;;;;;;25.17;10.50;;;0.70;99.90;;;;;;4427898;28;657612;-70
2022/12/29 04:51:44;;;;;;;62.97;22.37;;;0.70;99.90;;;;;;4447084;28;657374;-70
2022/12/29 04:54:32;;;;;;;33.40;12.23;;;0.60;99.90;;;;;;4429390;28;658166;-71
2022/12/29 04:57:19;;;;;;;38.73;14.43;;;0.60;99.90;;;;;;4448268;28;657678;-71
2022/12/29 05:00:08;;;;;;;31.33;12.50;;;0.60;99.90;;;;;;4428130;28;657680;-70
2022/12/29 05:02:56;;;;;;;33.93;13.60;;;0.50;99.90;;;;;;4428972;28;657284;-70
2022/12/29 05:05:44;;;;;;;24.90;9.83;;;0.50;99.90;;;;;;4449859;28;658503;-71
2022/12/29 05:08:31;;;;;;;18.30;8.07;;;0.50;99.90;;;;;;4426143;28;656698;-70
2022/12/29 05:11:19;;;;;;;15.50;7.17;;;0.50;99.90;;;;;;4448858;28;656821;-70
2022/12/29 05:14:06;;;;;;;16.73;6.73;;;0.50;99.90;;;;;;4429979;28;656605;-70
2022/12/29 05:16:53;;;;;;;17.00;6.93;;;0.50;99.90;;;;;;4448719;28;656960;-70
2022/12/29 05:19:40;;;;;;;21.73;9.03;;;0.60;99.90;;;;;;4425411;28;656783;-70
2022/12/29 05:22:29;;;;;;;27.77;11.23;;;0.70;99.90;;;;;;4442103;28;657545;-70
2022/12/29 05:25:16;;;;;;;20.50;9.13;;;0.60;99.90;;;;;;4423168;28;657408;-70
2022/12/29 05:28:04;;;;;;;28.90;10.60;;;0.60;99.90;;;;;;4442598;28;656226;-70
2022/12/29 05:30:51;;;;;;;30.50;13.07;;;0.60;99.90;;;;;;4423515;28;657709;-71
2022/12/29 05:33:39;;;;;;;61.43;22.23;;;0.50;99.90;;;;;;4305599;28;658015;-71
2022/12/29 05:36:26;;;;;;;79.00;27.50;;;0.50;99.90;;;;;;4248413;28;657668;-71
2022/12/29 05:39:15;;;;;;;88.73;28.10;;;0.40;99.90;;;;;;4329239;28;657095;-70
2022/12/29 05:42:02;;;;;;;241.90;76.50;;;0.40;99.90;;;;;;4426429;28;658957;-70
2022/12/29 05:44:53;;;;;;;512.57;166.63;;;0.30;99.90;;;;;;4447827;28;658797;-71
2022/12/29 05:47:40;;;;;;;276.52;95.32;;;0.30;99.90;;;;;;4429739;28;659802;-70
2022/12/29 05:50:28;;;;;;;256.43;86.63;;;0.30;99.90;;;;;;4452131;28;659822;-70
2022/12/29 05:53:15;;;;;;;145.27;51.70;;;0.30;99.90;;;;;;4441898;28;658562;-71
2022/12/29 05:56:04;;;;;;;103.40;38.50;;;0.20;99.90;;;;;;4448375;28;659053;-70
2022/12/29 05:58:51;;;;;;;43.10;17.90;;;0.20;99.90;;;;;;4430686;28;658661;-70
2022/12/29 06:01:38;;;;;;;20.63;9.50;;;0.20;99.90;;;;;;4450809;28;658499;-71
2022/12/29 06:04:25;;;;;;;25.43;10.47;;;0.10;99.90;;;;;;4432245;28;656746;-71
2022/12/29 06:07:13;;;;;;;28.97;12.37;;;0.10;99.90;;;;;;4455926;28;657429;-71
2022/12/29 06:10:00;;;;;;;34.50;13.35;;;0.20;99.90;;;;;;4436868;28;657839;-71
2022/12/29 06:12:49;;;;;;;42.83;18.27;;;0.10;99.90;;;;;;4449627;28;658377;-71
2022/12/29 06:15:36;;;;;;;54.10;23.87;;;0.00;99.90;;;;;;4431168;28;657559;-71
2022/12/29 06:18:23;;;;;;;50.90;22.13;;;0.00;99.90;;;;;;4448442;28;658792;-71
2022/12/29 06:21:11;;;;;;;45.67;20.27;;;0.00;99.90;;;;;;4421793;28;657754;-71
2022/12/29 06:23:58;;;;;;;39.27;16.97;;;-0.10;99.90;;;;;;4446480;28;658316;-71
2022/12/29 06:26:45;;;;;;;36.67;16.63;;;-0.10;99.90;;;;;;4427092;28;658913;-71
2022/12/29 06:29:36;;;;;;;56.43;25.37;;;-0.10;99.90;;;;;;4449196;28;659729;-71
2022/12/29 06:32:23;;;;;;;56.07;23.90;;;0.00;99.90;;;;;;4420387;28;658926;-71
2022/12/29 06:35:10;;;;;;;128.50;38.13;;;-0.10;99.90;;;;;;4435704;28;658000;-71
2022/12/29 06:37:58;;;;;;;312.00;90.77;;;-0.10;99.90;;;;;;4447250;28;660552;-71
2022/12/29 06:40:45;;;;;;;169.47;59.70;;;-0.20;99.90;;;;;;4441960;28;659819;-71
2022/12/29 06:43:33;;;;;;;115.97;43.97;;;-0.20;99.90;;;;;;4448588;28;660359;-71
2022/12/29 06:46:22;;;;;;;105.60;38.23;;;-0.10;99.90;;;;;;4427646;28;659962;-71
2022/12/29 06:49:09;;;;;;;73.30;27.20;;;-0.10;99.90;;;;;;4446403;28;659754;-71
2022/12/29 06:51:58;;;;;;;51.03;16.97;;;-0.10;99.90;;;;;;4433041;28;658871;-71
2022/12/29 06:54:45;;;;;;;49.70;17.87;;;-0.10;99.90;;;;;;4436677;28;658762;-71
2022/12/29 06:57:32;;;;;;;16.90;7.23;;;0.00;99.90;;;;;;4453713;28;659424;-71
2022/12/29 07:00:20;;;;;;;31.97;10.23;;;0.00;99.90;;;;;;4454608;28;656449;-71
2022/12/29 07:03:09;;;;;;;35.70;11.87;;;0.10;99.90;;;;;;4448752;28;657806;-71
2022/12/29 07:05:57;;;;;;;36.07;13.07;;;0.20;99.90;;;;;;4433244;28;658758;-71
2022/12/29 07:08:45;;;;;;;31.80;12.07;;;0.20;99.90;;;;;;4448980;28;657472;-71
2022/12/29 07:11:33;;;;;;;43.90;16.73;;;0.30;99.90;;;;;;4449117;28;658358;-71
2022/12/29 07:14:20;;;;;;;64.93;24.23;;;0.30;99.90;;;;;;4432083;28;657290;-71
2022/12/29 07:17:07;;;;;;;33.63;12.60;;;0.40;99.90;;;;;;4445736;28;658205;-71
2022/12/29 07:19:57;;;;;;;54.90;20.27;;;0.50;99.90;;;;;;4445074;28;657659;-70
2022/12/29 07:22:44;;;;;;;42.70;14.93;;;0.60;99.90;;;;;;4445803;28;657628;-71
2022/12/29 07:25:31;;;;;;;32.40;12.37;;;0.80;99.90;;;;;;4421336;28;657683;-71
2022/12/29 07:28:18;;;;;;;35.77;14.50;;;0.90;99.90;;;;;;4439511;28;657926;-70
2022/12/29 07:31:05;;;;;;;33.80;13.73;;;1.10;99.90;;;;;;4420812;28;657854;-71
2022/12/29 07:33:53;;;;;;;41.07;15.73;;;1.20;99.90;;;;;;4441524;28;658815;-71
2022/12/29 07:36:42;;;;;;;32.50;12.77;;;1.50;99.90;;;;;;4432160;28;658014;-71
2022/12/29 07:39:29;;;;;;;16.30;7.07;;;1.70;99.90;;;;;;4442546;28;657889;-71
2022/12/29 07:42:16;;;;;;;30.10;12.57;;;1.80;99.90;;;;;;4421668;28;657037;-71
2022/12/29 07:45:04;;;;;;;28.27;10.45;;;2.00;99.90;;;;;;4443340;28;658825;-71
2022/12/29 07:47:51;;;;;;;46.20;16.60;;;2.10;99.90;;;;;;4417489;28;658119;-71
2022/12/29 07:50:39;;;;;;;33.63;12.07;;;2.30;99.90;;;;;;4447341;28;658097;-71
2022/12/29 07:53:27;;;;;;;21.60;8.80;;;2.40;99.90;;;;;;4429872;28;657900;-71
2022/12/29 07:56:14;;;;;;;19.83;8.03;;;2.40;99.90;;;;;;4445203;28;656921;-70
2022/12/29 07:59:02;;;;;;;14.17;6.47;;;2.60;99.90;;;;;;4431179;28;656433;-70
2022/12/29 08:01:49;;;;;;;16.63;7.20;;;2.90;99.90;;;;;;4454325;28;656801;-70
2022/12/29 08:04:36;;;;;;;12.03;5.13;;;3.20;99.90;;;;;;4430037;28;656362;-70
2022/12/29 08:07:23;;;;;;;14.73;6.13;;;3.70;99.90;;;;;;4453462;28;657877;-70
2022/12/29 08:10:12;;;;;;;12.97;5.13;;;3.90;99.90;;;;;;4426412;28;656706;-70
2022/12/29 08:12:59;;;;;;;11.30;4.87;;;4.10;99.90;;;;;;4438647;28;656917;-70
2022/12/29 08:15:47;;;;;;;8.57;4.40;;;4.30;99.90;;;;;;4432850;28;657015;-70
2022/12/29 08:18:34;;;;;;;10.27;4.77;;;4.70;99.90;;;;;;4449673;28;655305;-70
2022/12/29 08:21:21;;;;;;;9.83;4.40;;;4.80;99.90;;;;;;4419840;28;656388;-70
2022/12/29 08:24:09;;;;;;;8.57;3.90;;;5.00;99.90;;;;;;4442890;28;657420;-70
2022/12/29 08:26:57;;;;;;;10.13;4.50;;;5.20;99.90;;;;;;4430198;28;655666;-70
2022/12/29 08:29:45;;;;;;;11.17;5.07;;;5.50;99.90;;;;;;4430924;28;656482;-68
2022/12/29 08:32:33;;;;;;;9.77;4.50;;;5.70;99.90;;;;;;4437939;28;657067;-68
2022/12/29 08:35:20;;;;;;;9.48;4.60;;;5.90;99.90;;;;;;4421711;28;655380;-68
2022/12/29 08:38:07;;;;;;;10.33;4.50;;;6.30;99.90;;;;;;4442317;28;656635;-68
2022/12/29 08:40:55;;;;;;;8.57;4.37;;;6.70;99.90;;;;;;4441512;28;656603;-69
2022/12/29 08:43:46;;;;;;;10.63;4.07;;;7.10;99.90;;;;;;4451412;28;656316;-67
2022/12/29 08:46:33;;;;;;;8.60;3.83;;;7.60;99.90;;;;;;4422825;28;657555;-69
2022/12/29 08:49:21;;;;;;;9.13;5.00;;;8.10;96.40;;;;;;4423677;28;655263;-67
2022/12/29 08:52:09;;;;;;;9.30;4.50;;;8.50;92.60;;;;;;4451443;28;656587;-68
2022/12/29 08:54:56;;;;;;;11.43;4.87;;;8.80;91.40;;;;;;4430786;28;656011;-68
2022/12/29 08:57:43;;;;;;;12.20;4.53;;;8.90;85.70;;;;;;4449930;28;656025;-67
2022/12/29 09:00:32;;;;;;;10.13;4.80;;;8.90;86.40;;;;;;4426014;28;656737;-68
2022/12/29 09:03:19;;;;;;;9.57;4.90;;;8.90;86.70;;;;;;4443988;28;656914;-67
2022/12/29 09:06:06;;;;;;;9.93;4.83;;;8.50;88.00;;;;;;4432275;28;655831;-68
2022/12/29 09:08:55;;;;;;;13.67;5.90;;;8.60;88.40;;;;;;4455053;28;656335;-68
2022/12/29 09:11:42;;;;;;;10.57;5.30;;;8.40;89.90;;;;;;4428311;28;656652;-67
2022/12/29 09:14:29;;;;;;;10.40;5.50;;;8.80;91.60;;;;;;4450864;28;656471;-67
2022/12/29 09:20:23;;;;;;;18.20;8.43;;;9.50;91.30;;;;;;4407033;28;657071;-67
2022/12/29 09:23:10;;;;;;;18.37;7.97;;;10.00;77.00;;;;;;4418072;28;656653;-67
2022/12/29 09:25:57;;;;;;;22.50;10.37;;;10.80;70.80;;;;;;4452349;28;658677;-67
2022/12/29 09:28:45;;;;;;;12.03;6.13;;;11.00;71.00;;;;;;4441084;28;658922;-68
2022/12/29 09:31:33;;;;;;;13.00;6.13;;;10.70;70.30;;;;;;4449256;28;658386;-68
2022/12/29 09:34:22;;;;;;;12.23;5.70;;;11.40;66.80;;;;;;4437517;28;658224;-68
2022/12/29 09:37:09;;;;;;;11.43;5.70;;;11.50;67.40;;;;;;4447418;28;658092;-68
2022/12/29 09:39:56;;;;;;;11.33;6.00;;;11.70;62.70;;;;;;4434636;28;658080;-68
2022/12/29 09:42:46;;;;;;;10.80;5.60;;;11.20;64.60;;;;;;4445570;28;659436;-68
2022/12/29 09:45:35;;;;;;;11.37;6.43;;;12.00;63.90;;;;;;4430602;28;657652;-68
2022/12/29 09:48:25;;;;;;;13.57;6.17;;;12.30;61.70;;;;;;4429755;28;658174;-68
2022/12/29 09:51:16;;;;;;;11.67;6.17;;;12.40;61.60;;;;;;4432515;28;657957;-68
2022/12/29 09:54:05;;;;;;;16.37;7.13;;;13.50;57.40;;;;;;4423787;28;658421;-67
2022/12/29 09:56:52;;;;;;;9.77;5.20;;;13.90;55.50;;;;;;4425659;28;659031;-67
2022/12/29 09:59:41;;;;;;;8.50;5.50;;;12.10;58.30;;;;;;4436189;28;656712;-67
2022/12/29 10:02:35;;;;;;;10.53;5.63;;;13.00;59.20;;;;;;4435074;28;657731;-67
2022/12/29 10:05:30;;;;;;;8.87;5.10;;;13.40;57.70;;;;;;4404247;28;658726;-68
2022/12/29 10:08:26;;;;;;;10.83;4.67;;;12.60;58.70;;;;;;4404280;28;658298;-68
2022/12/29 10:11:20;;;;;;;7.70;4.57;;;13.90;56.40;;;;;;4426198;28;658170;-68
2022/12/29 10:14:16;;;;;;;11.77;4.47;;;13.30;55.80;;;;;;4401305;28;656885;-67
2022/12/29 10:17:07;;;;;;;8.83;4.40;;;13.20;54.00;;;;;;4423582;28;658147;-67
2022/12/29 10:19:59;;;;;;;8.60;4.83;;;12.40;57.80;;;;;;4430973;28;656401;-67
2022/12/29 10:22:54;;;;;;;9.03;4.63;;;12.30;58.80;;;;;;4402326;28;656966;-67
2022/12/29 10:25:43;;;;;;;8.50;4.63;;;11.60;60.20;;;;;;4430798;28;656257;-67
2022/12/29 10:28:37;;;;;;;10.70;4.60;;;11.10;62.30;;;;;;4437262;28;657053;-68
2022/12/29 10:31:35;;;;;;;11.53;5.23;;;11.00;64.40;;;;;;4426223;28;658066;-67
2022/12/29 10:34:23;;;;;;;8.63;4.33;;;10.40;69.50;;;;;;4431704;28;658195;-67
2022/12/29 10:37:12;;;;;;;10.80;5.00;;;10.30;70.60;;;;;;4436409;28;656920;-67
2022/12/29 10:40:00;;;;;;;10.03;4.80;;;9.60;76.40;;;;;;4448575;28;657743;-67
2022/12/29 10:42:51;;;;;;;10.53;5.77;;;9.80;78.80;;;;;;4460686;28;656927;-67
2022/12/29 10:45:39;;;;;;;12.93;5.70;;;9.80;80.60;;;;;;4421360;28;657235;-67
2022/12/29 10:48:28;;;;;;;11.60;5.47;;;9.70;81.70;;;;;;4430345;28;657268;-67
2022/12/29 10:51:20;;;;;;;12.47;5.67;;;9.70;82.00;;;;;;4445953;28;656395;-67
2022/12/29 10:54:11;;;;;;;11.43;5.07;;;9.50;88.50;;;;;;4427342;28;657042;-67
2022/12/29 10:57:01;;;;;;;14.13;5.50;;;9.50;91.50;;;;;;4424526;28;657356;-67
2022/12/29 10:59:49;;;;;;;11.63;5.10;;;9.50;91.40;;;;;;4426377;28;657242;-67
2022/12/29 11:02:55;;;;;;;12.10;5.57;;;10.20;80.70;;;;;;4425707;28;657407;-67
2022/12/29 11:05:46;;;;;;;11.53;5.60;;;11.10;75.00;;;;;;4403776;28;657598;-67
2022/12/29 11:08:36;;;;;;;11.63;5.37;;;11.60;71.30;;;;;;4428201;28;657636;-67
2022/12/29 11:11:25;;;;;;;10.80;5.30;;;11.80;68.90;;;;;;4421875;28;658945;-67
2022/12/29 11:14:14;;;;;;;11.63;5.97;;;11.10;71.10;;;;;;4419334;28;658834;-67
2022/12/29 11:17:03;;;;;;;12.07;5.67;;;10.20;75.80;;;;;;4427906;28;657613;-67
2022/12/29 11:19:50;;;;;;;11.47;5.87;;;10.40;77.60;;;;;;4427130;28;657761;-67
2022/12/29 11:22:39;;;;;;;13.23;5.93;;;10.60;76.00;;;;;;4443597;28;658928;-67
2022/12/29 11:25:27;;;;;;;13.27;6.63;;;10.60;78.80;;;;;;4431471;28;657649;-67
2022/12/29 11:28:16;;;;;;;13.43;6.47;;;10.40;77.70;;;;;;4456738;28;657827;-67
2022/12/29 11:31:03;;;;;;;12.60;5.67;;;10.40;79.90;;;;;;4350756;28;658514;-68
2022/12/29 11:33:52;;;;;;;11.83;5.90;;;10.20;80.60;;;;;;4247710;28;657748;-68
2022/12/29 11:36:39;;;;;;;12.63;6.50;;;9.90;83.10;;;;;;4275838;28;657379;-68
2022/12/29 11:39:46;;;;;;;19.63;7.47;;;9.70;88.60;;;;;;4421790;28;656379;-67
2022/12/29 11:42:36;;;;;;;19.80;10.20;;;9.50;91.90;;;;;;4425202;28;656695;-67
2022/12/29 11:45:24;;;;;;;25.87;12.03;;;9.50;92.40;;;;;;4422983;28;658121;-67
2022/12/29 11:48:15;;;;;;;24.33;11.95;;;9.40;91.50;;;;;;4426879;28;657325;-67
2022/12/29 11:51:03;;;;;;;31.60;11.27;;;9.50;92.80;;;;;;4426390;28;658584;-67
2022/12/29 11:53:52;;;;;;;28.57;12.27;;;9.50;92.20;;;;;;4421742;28;657539;-67
2022/12/29 11:56:41;;;;;;;23.10;11.40;;;9.50;93.90;;;;;;4453645;28;657323;-66
2022/12/29 11:59:43;;;;;;;25.30;11.73;;;9.60;93.70;;;;;;4421982;28;658442;-67
2022/12/29 12:02:41;;;;;;;28.07;11.23;;;9.60;93.70;;;;;;4401507;28;658148;-68
2022/12/29 12:05:36;;;;;;;22.10;11.60;;;9.70;93.10;;;;;;4430288;28;658027;-67
2022/12/29 12:08:32;;;;;;;30.70;11.93;;;9.90;91.80;;;;;;4426516;28;658467;-67
2022/12/29 12:11:20;;;;;;;25.33;11.70;;;9.90;92.40;;;;;;4419872;28;658145;-67
2022/12/29 12:14:12;;;;;;;32.67;12.03;;;10.10;92.40;;;;;;4423851;28;659039;-67
2022/12/29 12:17:01;;;;;;;29.40;12.30;;;10.10;93.10;;;;;;4423963;28;659063;-67
2022/12/29 12:19:49;;;;;;;22.87;10.93;;;10.10;93.70;;;;;;4422949;28;659433;-67
2022/12/29 12:22:38;;;;;;;28.87;11.80;;;10.10;92.60;;;;;;4420675;28;658515;-67
2022/12/29 12:25:32;;;;;;;29.20;11.93;;;10.10;93.10;;;;;;4428067;28;658920;-67
2022/12/29 12:28:21;;;;;;;25.17;11.27;;;9.80;94.70;;;;;;4423603;28;658658;-67
2022/12/29 12:31:17;;;;;;;29.87;12.77;;;9.80;98.10;;;;;;4427008;28;657724;-67
2022/12/29 12:34:06;;;;;;;22.93;11.07;;;9.90;98.40;;;;;;4421783;28;657918;-67
2022/12/29 12:37:11;;;;;;;23.10;10.50;;;10.00;96.00;;;;;;4420445;28;657706;-67
2022/12/29 12:40:13;;;;;;;18.47;8.53;;;10.00;99.30;;;;;;4425443;28;659498;-66
2022/12/29 12:43:17;;;;;;;16.73;7.70;;;9.80;98.80;;;;;;4421712;28;657835;-67
2022/12/29 12:46:27;;;;;;;17.53;7.53;;;9.80;97.90;;;;;;4423988;28;657091;-67
2022/12/29 12:49:42;;;;;;;14.87;7.40;;;9.80;99.10;;;;;;4421019;28;656619;-68
2022/12/29 12:52:34;;;;;;;17.20;7.33;;;9.80;98.40;;;;;;4423339;28;657111;-67
2022/12/29 12:55:33;;;;;;;13.77;6.67;;;9.80;99.50;;;;;;4419236;28;657274;-67
2022/12/29 12:58:29;;;;;;;15.43;6.63;;;10.00;95.70;;;;;;4410694;28;656856;-68
2022/12/29 13:01:29;;;;;;;16.70;6.37;;;10.20;96.70;;;;;;4429472;28;657651;-69
2022/12/29 13:04:34;;;;;;;11.53;6.50;;;10.20;94.80;;;;;;4407996;28;658265;-69
2022/12/29 13:07:26;;;;;;;13.27;6.73;;;10.10;97.60;;;;;;4408404;28;658139;-69
2022/12/29 13:10:34;;;;;;;13.10;6.67;;;10.50;95.30;;;;;;4430112;28;658480;-68
2022/12/29 13:14:03;;;;;;;13.40;6.80;;;11.40;87.40;;;;;;4429893;28;657468;-66
2022/12/29 13:16:53;;;;;;;14.20;6.37;;;11.20;84.30;;;;;;4435246;28;657582;-68
2022/12/29 13:19:42;;;;;;;13.70;6.57;;;10.80;87.90;;;;;;4427432;28;658599;-67
2022/12/29 13:22:31;;;;;;;13.90;5.97;;;10.30;90.90;;;;;;4451141;28;657911;-67
2022/12/29 13:25:27;;;;;;;11.17;6.20;;;9.90;93.20;;;;;;4432026;28;657908;-67
2022/12/29 13:28:18;;;;;;;14.07;7.00;;;9.80;94.40;;;;;;4427131;28;656468;-68
2022/12/29 13:31:10;;;;;;;13.97;5.60;;;9.70;95.90;;;;;;4433753;28;656755;-68
2022/12/29 13:34:01;;;;;;;13.67;6.17;;;9.50;97.80;;;;;;4423769;28;657533;-71
2022/12/29 13:36:50;;;;;;;11.90;5.87;;;9.50;99.10;;;;;;4414804;28;656841;-71
2022/12/29 13:39:38;;;;;;;13.23;6.10;;;9.60;96.30;;;;;;4425728;28;656695;-71
2022/12/29 13:42:26;;;;;;;14.63;6.80;;;9.50;99.80;;;;;;4428736;28;657010;-71
2022/12/29 13:45:15;;;;;;;15.23;6.70;;;9.70;97.30;;;;;;4452729;28;656846;-71
2022/12/29 13:48:05;;;;;;;13.97;6.27;;;9.70;97.00;;;;;;4425219;28;657639;-71
2022/12/29 13:50:54;;;;;;;17.87;6.70;;;9.80;96.70;;;;;;4423161;28;657207;-74
2022/12/29 13:53:50;;;;;;;13.23;6.23;;;9.60;95.70;;;;;;4431494;28;656871;-72
2022/12/29 13:56:40;;;;;;;13.03;6.60;;;9.60;97.10;;;;;;4423190;28;656520;-71
2022/12/29 13:59:40;;;;;;;15.20;6.40;;;9.50;95.50;;;;;;4428432;28;657546;-72
2022/12/29 14:02:34;;;;;;;14.43;6.67;;;9.80;94.00;;;;;;4430887;28;657333;-73
2022/12/29 14:05:33;;;;;;;14.23;6.90;;;9.70;94.40;;;;;;4428846;28;657406;-72
2022/12/29 14:08:20;;;;;;;15.23;7.47;;;9.60;94.60;;;;;;4413288;28;656419;-73
2022/12/29 14:11:09;;;;;;;13.20;6.43;;;9.30;97.50;;;;;;4454577;28;656328;-73
2022/12/29 14:13:57;;;;;;;15.50;6.10;;;9.20;96.70;;;;;;4431407;28;656887;-73
2022/12/29 14:16:45;;;;;;;14.50;6.83;;;9.10;96.50;;;;;;4451490;28;655903;-72
2022/12/29 14:19:33;;;;;;;12.77;6.37;;;9.00;97.60;;;;;;4424203;28;657080;-72
2022/12/29 14:22:25;;;;;;;13.87;6.57;;;9.10;98.30;;;;;;4426944;28;656590;-71
2022/12/29 14:25:55;;;;;;;16.93;6.83;;;9.00;97.90;;;;;;4429797;28;656442;-71
2022/12/29 14:28:43;;;;;;;15.53;6.87;;;8.90;99.90;;;;;;4403451;28;657024;-71
2022/12/29 14:31:40;;;;;;;13.43;6.73;;;8.70;99.90;;;;;;4442593;28;656118;-72
2022/12/29 14:34:31;;;;;;;14.32;7.28;;;8.60;99.90;;;;;;4434679;28;656816;-72
2022/12/29 14:37:26;;;;;;;14.20;7.00;;;8.50;99.90;;;;;;4427723;28;656813;-71
2022/12/29 14:40:16;;;;;;;16.75;8.50;;;8.50;99.90;;;;;;4427207;28;656500;-72
2022/12/29 14:43:03;;;;;;;20.00;8.10;;;8.30;99.90;;;;;;4431834;28;657204;-72
2022/12/29 14:45:59;;;;;;;23.00;9.40;;;8.20;99.90;;;;;;4430572;28;656347;-71
2022/12/29 14:48:47;;;;;;;19.33;9.50;;;8.00;99.90;;;;;;4406889;28;656918;-78
2022/12/29 14:51:36;;;;;;;18.83;10.00;;;7.80;99.90;;;;;;4446492;28;657039;-76
2022/12/29 14:54:49;;;;;;;26.33;10.23;;;7.70;99.90;;;;;;4422763;28;658016;-77
2022/12/29 14:57:37;;;;;;;18.53;8.50;;;7.50;99.90;;;;;;4393125;28;658444;-76
2022/12/29 15:00:26;;;;;;;19.47;8.20;;;7.30;99.90;;;;;;4449050;28;656777;-73
2022/12/29 15:03:15;;;;;;;19.37;8.40;;;7.20;99.90;;;;;;4428079;28;657402;-76